sensor_id;sensor_type;location;lat;lon;timestamp;temperature;humidity
4643;DHT22;2334;48.710;9.622;2024-02-15T00:01:42;8.10;99.90
4643;DHT22;2334;48.710;9.622;2024-02-15T00:04:23;8.00;99.90
4643;DHT22;2334;48.710;9.622;2024-02-15T00:06:58;8.00;99.90
4643;DHT22;2334;48.710;9.622;2024-02-15T00:09:42;8.00;99.90
4643;DHT22;2334;48.710;9.622;2024-02-15T00:12:28;8.10;99.90
4643;DHT22;2334;48.710;9.622;2024-02-15T00:15:08;8.10;99.90
4643;DHT22;2334;48.710;9.622;2024-02-15T00:17:57;8.10;99.90
4643;DHT22;2334;48.710;9.622;2024-02-15T00:20:38;8.10;99.90
4643;DHT22;2334;48.710;9.622;2024-02-15T00:23:15;8.10;99.90
4643;DHT22;2334;48.710;9.622;2024-02-15T00:29:07;8.10;99.90
4643;DHT22;2334;48.710;9.622;2024-02-15T00:32:01;8.10;99.90
4643;DHT22;2334;48.710;9.622;2024-02-15T00:34:48;8.10;99.90
4643;DHT22;2334;48.710;9.622;2024-02-15T00:37:39;8.10;99.90
4643;DHT22;2334;48.710;9.622;2024-02-15T00:40:31;8.10;99.90
4643;DHT22;2334;48.710;9.622;2024-02-15T00:43:23;8.10;99.90
4643;DHT22;2334;48.710;9.622;2024-02-15T00:46:16;8.10;99.90
4643;DHT22;2334;48.710;9.622;2024-02-15T00:48:56;8.20;99.90
4643;DHT22;2334;48.710;9.622;2024-02-15T00:51:39;8.20;99.90
4643;DHT22;2334;48.710;9.622;2024-02-15T00:54:26;8.10;99.90
4643;DHT22;2334;48.710;9.622;2024-02-15T00:57:06;8.10;99.90
4643;DHT22;2334;48.710;9.622;2024-02-15T00:59:43;8.10;99.90
4643;DHT22;2334;48.710;9.622;2024-02-15T01:02:34;8.10;99.90
4643;DHT22;2334;48.710;9.622;2024-02-15T01:05:19;8.20;99.90
4643;DHT22;2334;48.710;9.622;2024-02-15T01:07:59;8.20;99.90
4643;DHT22;2334;48.710;9.622;2024-02-15T01:10:36;8.20;99.90
4643;DHT22;2334;48.710;9.622;2024-02-15T01:13:29;8.10;99.90
4643;DHT22;2334;48.710;9.622;2024-02-15T01:16:23;8.10;99.90
4643;DHT22;2334;48.710;9.622;2024-02-15T01:19:22;8.20;99.90
4643;DHT22;2334;48.710;9.622;2024-02-15T01:22:03;8.10;99.90
4643;DHT22;2334;48.710;9.622;2024-02-15T01:24:44;8.10;99.90
4643;DHT22;2334;48.710;9.622;2024-02-15T01:27:23;8.10;99.90
4643;DHT22;2334;48.710;9.622;2024-02-15T01:30:11;8.10;99.90
4643;DHT22;2334;48.710;9.622;2024-02-15T01:33:07;8.10;99.90
4643;DHT22;2334;48.710;9.622;2024-02-15T01:36:04;8.10;99.90
4643;DHT22;2334;48.710;9.622;2024-02-15T01:38:39;8.00;99.90
4643;DHT22;2334;48.710;9.622;2024-02-15T01:41:29;8.00;99.90
4643;DHT22;2334;48.710;9.622;2024-02-15T01:44:24;8.00;99.90
4643;DHT22;2334;48.710;9.622;2024-02-15T01:47:15;7.90;99.90
4643;DHT22;2334;48.710;9.622;2024-02-15T01:50:07;7.90;99.90
4643;DHT22;2334;48.710;9.622;2024-02-15T01:52:53;7.90;99.90
4643;DHT22;2334;48.710;9.622;2024-02-15T01:55:39;7.80;99.90
4643;DHT22;2334;48.710;9.622;2024-02-15T01:58:23;7.80;99.90
4643;DHT22;2334;48.710;9.622;2024-02-15T02:01:04;7.70;99.90
4643;DHT22;2334;48.710;9.622;2024-02-15T02:03:47;7.60;99.90
4643;DHT22;2334;48.710;9.622;2024-02-15T02:06:31;7.60;99.90
4643;DHT22;2334;48.710;9.622;2024-02-15T02:09:10;7.50;99.90
4643;DHT22;2334;48.710;9.622;2024-02-15T02:11:44;7.50;99.90
4643;DHT22;2334;48.710;9.622;2024-02-15T02:14:18;7.40;99.90
4643;DHT22;2334;48.710;9.622;2024-02-15T02:16:49;7.40;99.90
4643;DHT22;2334;48.710;9.622;2024-02-15T02:19:23;7.40;99.90
4643;DHT22;2334;48.710;9.622;2024-02-15T02:22:04;7.40;99.90
4643;DHT22;2334;48.710;9.622;2024-02-15T02:24:59;7.30;99.90
4643;DHT22;2334;48.710;9.622;2024-02-15T02:27:40;7.20;99.90
4643;DHT22;2334;48.710;9.622;2024-02-15T02:30:22;7.10;99.90
4643;DHT22;2334;48.710;9.622;2024-02-15T02:33:05;7.10;99.90
4643;DHT22;2334;48.710;9.622;2024-02-15T02:35:57;7.10;99.90
4643;DHT22;2334;48.710;9.622;2024-02-15T02:38:43;7.10;99.90
4643;DHT22;2334;48.710;9.622;2024-02-15T02:41:25;7.10;99.90
4643;DHT22;2334;48.710;9.622;2024-02-15T02:44:09;7.10;99.90
4643;DHT22;2334;48.710;9.622;2024-02-15T02:46:49;7.20;99.90
4643;DHT22;2334;48.710;9.622;2024-02-15T02:49:37;7.20;99.90
4643;DHT22;2334;48.710;9.622;2024-02-15T02:52:23;7.10;99.90
4643;DHT22;2334;48.710;9.622;2024-02-15T02:55:14;7.10;99.90
4643;DHT22;2334;48.710;9.622;2024-02-15T02:58:03;7.10;99.90
4643;DHT22;2334;48.710;9.622;2024-02-15T03:00:34;7.10;99.90
4643;DHT22;2334;48.710;9.622;2024-02-15T03:03:15;7.10;99.90
4643;DHT22;2334;48.710;9.622;2024-02-15T03:06:07;7.00;99.90
4643;DHT22;2334;48.710;9.622;2024-02-15T03:09:02;7.00;99.90
4643;DHT22;2334;48.710;9.622;2024-02-15T03:11:45;7.00;99.90
4643;DHT22;2334;48.710;9.622;2024-02-15T03:14:38;7.00;99.90
4643;DHT22;2334;48.710;9.622;2024-02-15T03:17:07;7.00;99.90
4643;DHT22;2334;48.710;9.622;2024-02-15T03:19:41;6.90;99.90
4643;DHT22;2334;48.710;9.622;2024-02-15T03:22:41;6.90;99.90
4643;DHT22;2334;48.710;9.622;2024-02-15T03:25:29;7.00;99.90
4643;DHT22;2334;48.710;9.622;2024-02-15T03:28:15;7.00;99.90
4643;DHT22;2334;48.710;9.622;2024-02-15T03:30:57;7.00;99.90
4643;DHT22;2334;48.710;9.622;2024-02-15T03:33:39;7.00;99.90
4643;DHT22;2334;48.710;9.622;2024-02-15T03:36:19;7.00;99.90
4643;DHT22;2334;48.710;9.622;2024-02-15T03:39:06;7.00;99.90
4643;DHT22;2334;48.710;9.622;2024-02-15T03:42:03;6.90;99.90
4643;DHT22;2334;48.710;9.622;2024-02-15T03:44:33;6.90;99.90
4643;DHT22;2334;48.710;9.622;2024-02-15T03:47:22;6.90;99.90
4643;DHT22;2334;48.710;9.622;2024-02-15T03:50:14;7.00;99.90
4643;DHT22;2334;48.710;9.622;2024-02-15T03:53:07;7.00;99.90
4643;DHT22;2334;48.710;9.622;2024-02-15T03:55:56;6.90;99.90
4643;DHT22;2334;48.710;9.622;2024-02-15T03:58:46;7.00;99.90
4643;DHT22;2334;48.710;9.622;2024-02-15T04:01:28;6.90;99.90
4643;DHT22;2334;48.710;9.622;2024-02-15T04:04:45;7.00;99.90
4643;DHT22;2334;48.710;9.622;2024-02-15T04:07:31;7.00;99.90
4643;DHT22;2334;48.710;9.622;2024-02-15T04:10:18;7.00;99.90
4643;DHT22;2334;48.710;9.622;2024-02-15T04:13:06;7.10;99.90
4643;DHT22;2334;48.710;9.622;2024-02-15T04:15:49;7.00;99.90
4643;DHT22;2334;48.710;9.622;2024-02-15T04:18:45;7.00;99.90
4643;DHT22;2334;48.710;9.622;2024-02-15T04:21:48;7.00;99.90
4643;DHT22;2334;48.710;9.622;2024-02-15T04:24:31;6.90;99.90
4643;DHT22;2334;48.710;9.622;2024-02-15T04:27:24;6.90;99.90
4643;DHT22;2334;48.710;9.622;2024-02-15T04:29:56;6.90;99.90
4643;DHT22;2334;48.710;9.622;2024-02-15T04:32:34;6.80;99.90
4643;DHT22;2334;48.710;9.622;2024-02-15T04:35:13;6.70;99.90
4643;DHT22;2334;48.710;9.622;2024-02-15T04:38:07;6.70;99.90
4643;DHT22;2334;48.710;9.622;2024-02-15T04:41:02;6.60;99.90
4643;DHT22;2334;48.710;9.622;2024-02-15T04:43:48;6.60;99.90
4643;DHT22;2334;48.710;9.622;2024-02-15T04:46:38;6.50;99.90
4643;DHT22;2334;48.710;9.622;2024-02-15T04:49:38;6.40;99.90
4643;DHT22;2334;48.710;9.622;2024-02-15T04:52:27;6.40;99.90
4643;DHT22;2334;48.710;9.622;2024-02-15T04:55:15;6.30;99.90
4643;DHT22;2334;48.710;9.622;2024-02-15T04:58:10;6.30;99.90
4643;DHT22;2334;48.710;9.622;2024-02-15T05:00:42;6.10;99.90
4643;DHT22;2334;48.710;9.622;2024-02-15T05:03:26;6.10;99.90
4643;DHT22;2334;48.710;9.622;2024-02-15T05:06:12;6.10;99.90
4643;DHT22;2334;48.710;9.622;2024-02-15T05:08:57;6.00;99.90
4643;DHT22;2334;48.710;9.622;2024-02-15T05:11:53;6.00;99.90
4643;DHT22;2334;48.710;9.622;2024-02-15T05:14:34;5.90;99.90
4643;DHT22;2334;48.710;9.622;2024-02-15T05:17:10;5.80;99.90
4643;DHT22;2334;48.710;9.622;2024-02-15T05:19:43;5.70;99.90
4643;DHT22;2334;48.710;9.622;2024-02-15T05:22:24;5.70;99.90
4643;DHT22;2334;48.710;9.622;2024-02-15T05:25:03;5.70;99.90
4643;DHT22;2334;48.710;9.622;2024-02-15T05:28:00;5.60;99.90
4643;DHT22;2334;48.710;9.622;2024-02-15T05:30:48;5.50;99.90
4643;DHT22;2334;48.710;9.622;2024-02-15T05:33:38;5.50;99.90
4643;DHT22;2334;48.710;9.622;2024-02-15T05:36:33;5.50;99.90
4643;DHT22;2334;48.710;9.622;2024-02-15T05:39:18;5.50;99.90
4643;DHT22;2334;48.710;9.622;2024-02-15T05:42:12;5.50;99.90
4643;DHT22;2334;48.710;9.622;2024-02-15T05:48:13;5.40;99.90
4643;DHT22;2334;48.710;9.622;2024-02-15T05:51:07;5.30;99.90
4643;DHT22;2334;48.710;9.622;2024-02-15T05:53:57;5.30;99.90
4643;DHT22;2334;48.710;9.622;2024-02-15T05:56:29;5.30;99.90
4643;DHT22;2334;48.710;9.622;2024-02-15T05:59:09;5.30;99.90
4643;DHT22;2334;48.710;9.622;2024-02-15T06:01:47;5.30;99.90
4643;DHT22;2334;48.710;9.622;2024-02-15T06:04:31;5.40;99.90
4643;DHT22;2334;48.710;9.622;2024-02-15T06:07:21;5.30;99.90
4643;DHT22;2334;48.710;9.622;2024-02-15T06:10:00;5.20;99.90
4643;DHT22;2334;48.710;9.622;2024-02-15T06:12:46;5.30;99.90
4643;DHT22;2334;48.710;9.622;2024-02-15T06:15:27;5.30;99.90
4643;DHT22;2334;48.710;9.622;2024-02-15T06:18:12;5.30;99.90
4643;DHT22;2334;48.710;9.622;2024-02-15T06:20:52;5.30;99.90
4643;DHT22;2334;48.710;9.622;2024-02-15T06:23:25;5.20;99.90
4643;DHT22;2334;48.710;9.622;2024-02-15T06:26:05;5.30;99.90
4643;DHT22;2334;48.710;9.622;2024-02-15T06:28:49;5.30;99.90
4643;DHT22;2334;48.710;9.622;2024-02-15T06:31:41;5.30;99.90
4643;DHT22;2334;48.710;9.622;2024-02-15T06:34:42;5.40;99.90
4643;DHT22;2334;48.710;9.622;2024-02-15T06:37:53;5.40;99.90
4643;DHT22;2334;48.710;9.622;2024-02-15T06:40:47;5.40;99.90
4643;DHT22;2334;48.710;9.622;2024-02-15T06:43:27;5.40;99.90
4643;DHT22;2334;48.710;9.622;2024-02-15T06:46:08;5.40;99.90
4643;DHT22;2334;48.710;9.622;2024-02-15T06:48:43;5.50;99.90
4643;DHT22;2334;48.710;9.622;2024-02-15T06:51:14;5.50;99.90
4643;DHT22;2334;48.710;9.622;2024-02-15T06:53:55;5.50;99.90
4643;DHT22;2334;48.710;9.622;2024-02-15T06:56:31;5.50;99.90
4643;DHT22;2334;48.710;9.622;2024-02-15T06:59:11;5.50;99.90
4643;DHT22;2334;48.710;9.622;2024-02-15T07:01:42;5.50;99.90
4643;DHT22;2334;48.710;9.622;2024-02-15T07:04:13;5.50;99.90
4643;DHT22;2334;48.710;9.622;2024-02-15T07:06:52;5.50;99.90
4643;DHT22;2334;48.710;9.622;2024-02-15T07:09:24;5.50;99.90
4643;DHT22;2334;48.710;9.622;2024-02-15T07:11:51;5.50;99.90
4643;DHT22;2334;48.710;9.622;2024-02-15T07:14:20;5.50;99.90
4643;DHT22;2334;48.710;9.622;2024-02-15T07:16:47;5.50;99.90
4643;DHT22;2334;48.710;9.622;2024-02-15T07:19:15;5.50;99.90
4643;DHT22;2334;48.710;9.622;2024-02-15T07:21:44;5.50;99.90
4643;DHT22;2334;48.710;9.622;2024-02-15T07:24:12;5.50;99.90
4643;DHT22;2334;48.710;9.622;2024-02-15T07:26:43;5.50;99.90
4643;DHT22;2334;48.710;9.622;2024-02-15T07:29:11;5.50;99.90
4643;DHT22;2334;48.710;9.622;2024-02-15T07:31:41;5.60;99.90
4643;DHT22;2334;48.710;9.622;2024-02-15T07:34:10;5.60;99.90
4643;DHT22;2334;48.710;9.622;2024-02-15T07:36:38;5.70;99.90
4643;DHT22;2334;48.710;9.622;2024-02-15T07:39:09;5.80;99.90
4643;DHT22;2334;48.710;9.622;2024-02-15T07:41:39;5.90;99.90
4643;DHT22;2334;48.710;9.622;2024-02-15T07:44:09;5.90;99.90
4643;DHT22;2334;48.710;9.622;2024-02-15T07:46:38;6.00;99.90
4643;DHT22;2334;48.710;9.622;2024-02-15T07:49:08;6.10;99.90
4643;DHT22;2334;48.710;9.622;2024-02-15T07:51:37;6.10;99.90
4643;DHT22;2334;48.710;9.622;2024-02-15T07:54:06;6.30;99.90
4643;DHT22;2334;48.710;9.622;2024-02-15T07:56:34;6.30;99.90
4643;DHT22;2334;48.710;9.622;2024-02-15T07:59:02;6.40;99.90
4643;DHT22;2334;48.710;9.622;2024-02-15T08:01:31;6.40;99.90
4643;DHT22;2334;48.710;9.622;2024-02-15T08:03:58;6.50;99.90
4643;DHT22;2334;48.710;9.622;2024-02-15T08:06:25;6.70;99.90
4643;DHT22;2334;48.710;9.622;2024-02-15T08:08:53;6.80;99.90
4643;DHT22;2334;48.710;9.622;2024-02-15T08:11:20;7.00;99.90
4643;DHT22;2334;48.710;9.622;2024-02-15T08:13:51;7.20;99.90
4643;DHT22;2334;48.710;9.622;2024-02-15T08:16:21;7.40;99.90
4643;DHT22;2334;48.710;9.622;2024-02-15T08:18:50;7.50;99.90
4643;DHT22;2334;48.710;9.622;2024-02-15T08:21:25;7.60;99.90
4643;DHT22;2334;48.710;9.622;2024-02-15T08:23:54;7.70;99.90
4643;DHT22;2334;48.710;9.622;2024-02-15T08:26:22;7.80;99.90
4643;DHT22;2334;48.710;9.622;2024-02-15T08:28:49;7.90;99.90
4643;DHT22;2334;48.710;9.622;2024-02-15T08:31:16;8.00;99.90
4643;DHT22;2334;48.710;9.622;2024-02-15T08:33:45;8.00;99.90
4643;DHT22;2334;48.710;9.622;2024-02-15T08:36:13;8.20;99.90
4643;DHT22;2334;48.710;9.622;2024-02-15T08:38:40;8.30;99.90
4643;DHT22;2334;48.710;9.622;2024-02-15T08:41:07;8.60;99.90
4643;DHT22;2334;48.710;9.622;2024-02-15T08:43:37;8.80;99.90
4643;DHT22;2334;48.710;9.622;2024-02-15T08:46:05;9.00;99.90
4643;DHT22;2334;48.710;9.622;2024-02-15T08:48:33;9.30;99.90
4643;DHT22;2334;48.710;9.622;2024-02-15T08:51:00;9.50;99.90
4643;DHT22;2334;48.710;9.622;2024-02-15T08:53:29;9.70;99.90
4643;DHT22;2334;48.710;9.622;2024-02-15T08:55:57;10.00;99.90
4643;DHT22;2334;48.710;9.622;2024-02-15T08:58:25;10.20;99.90
4643;DHT22;2334;48.710;9.622;2024-02-15T09:00:52;10.40;99.90
4643;DHT22;2334;48.710;9.622;2024-02-15T09:03:19;10.50;99.90
4643;DHT22;2334;48.710;9.622;2024-02-15T09:05:47;10.50;99.90
4643;DHT22;2334;48.710;9.622;2024-02-15T09:08:14;10.60;99.90
4643;DHT22;2334;48.710;9.622;2024-02-15T09:10:48;10.80;99.90
4643;DHT22;2334;48.710;9.622;2024-02-15T09:13:17;10.90;99.90
4643;DHT22;2334;48.710;9.622;2024-02-15T09:15:44;11.10;99.90
4643;DHT22;2334;48.710;9.622;2024-02-15T09:18:13;11.30;99.90
4643;DHT22;2334;48.710;9.622;2024-02-15T09:20:40;11.40;99.90
4643;DHT22;2334;48.710;9.622;2024-02-15T09:23:10;11.50;99.90
4643;DHT22;2334;48.710;9.622;2024-02-15T09:25:38;11.70;99.90
4643;DHT22;2334;48.710;9.622;2024-02-15T09:28:07;11.90;99.90
4643;DHT22;2334;48.710;9.622;2024-02-15T09:30:34;12.10;99.90
4643;DHT22;2334;48.710;9.622;2024-02-15T09:33:02;12.20;99.90
4643;DHT22;2334;48.710;9.622;2024-02-15T09:35:30;12.20;99.90
4643;DHT22;2334;48.710;9.622;2024-02-15T09:37:58;12.40;99.90
4643;DHT22;2334;48.710;9.622;2024-02-15T09:40:25;12.50;99.90
4643;DHT22;2334;48.710;9.622;2024-02-15T09:42:54;12.70;99.90
4643;DHT22;2334;48.710;9.622;2024-02-15T09:45:23;12.70;99.90
4643;DHT22;2334;48.710;9.622;2024-02-15T09:47:52;12.90;99.90
4643;DHT22;2334;48.710;9.622;2024-02-15T09:50:23;13.10;99.90
4643;DHT22;2334;48.710;9.622;2024-02-15T09:52:52;13.40;99.90
4643;DHT22;2334;48.710;9.622;2024-02-15T09:55:21;13.60;99.90
4643;DHT22;2334;48.710;9.622;2024-02-15T09:57:50;13.80;99.90
4643;DHT22;2334;48.710;9.622;2024-02-15T10:00:17;14.00;99.90
4643;DHT22;2334;48.710;9.622;2024-02-15T10:02:47;14.20;99.90
4643;DHT22;2334;48.710;9.622;2024-02-15T10:05:16;14.30;99.90
4643;DHT22;2334;48.710;9.622;2024-02-15T10:07:44;14.60;99.90
4643;DHT22;2334;48.710;9.622;2024-02-15T10:10:16;14.80;99.90
4643;DHT22;2334;48.710;9.622;2024-02-15T10:12:44;14.80;99.90
4643;DHT22;2334;48.710;9.622;2024-02-15T10:15:27;14.90;99.90
4643;DHT22;2334;48.710;9.622;2024-02-15T10:17:56;15.10;99.90
4643;DHT22;2334;48.710;9.622;2024-02-15T10:20:24;15.20;99.90
4643;DHT22;2334;48.710;9.622;2024-02-15T10:22:52;15.20;99.90
4643;DHT22;2334;48.710;9.622;2024-02-15T10:25:20;15.40;99.90
4643;DHT22;2334;48.710;9.622;2024-02-15T10:27:48;15.50;99.90
4643;DHT22;2334;48.710;9.622;2024-02-15T10:30:17;15.70;99.90
4643;DHT22;2334;48.710;9.622;2024-02-15T10:32:46;15.90;99.90
4643;DHT22;2334;48.710;9.622;2024-02-15T10:35:25;15.80;99.90
4643;DHT22;2334;48.710;9.622;2024-02-15T10:38:05;15.80;99.90
4643;DHT22;2334;48.710;9.622;2024-02-15T10:40:35;16.00;99.90
4643;DHT22;2334;48.710;9.622;2024-02-15T10:43:03;16.00;99.90
4643;DHT22;2334;48.710;9.622;2024-02-15T10:45:31;16.00;99.90
4643;DHT22;2334;48.710;9.622;2024-02-15T10:47:59;16.00;99.90
4643;DHT22;2334;48.710;9.622;2024-02-15T10:50:27;16.20;99.90
4643;DHT22;2334;48.710;9.622;2024-02-15T10:52:55;16.30;99.90
4643;DHT22;2334;48.710;9.622;2024-02-15T10:55:31;16.40;99.90
4643;DHT22;2334;48.710;9.622;2024-02-15T10:58:05;16.50;99.90
4643;DHT22;2334;48.710;9.622;2024-02-15T11:00:33;16.60;99.90
4643;DHT22;2334;48.710;9.622;2024-02-15T11:03:04;16.40;99.90
4643;DHT22;2334;48.710;9.622;2024-02-15T11:05:44;16.30;99.90
4643;DHT22;2334;48.710;9.622;2024-02-15T11:08:12;16.50;99.90
4643;DHT22;2334;48.710;9.622;2024-02-15T11:10:40;16.70;99.90
4643;DHT22;2334;48.710;9.622;2024-02-15T11:13:10;16.60;99.90
4643;DHT22;2334;48.710;9.622;2024-02-15T11:15:45;16.80;99.90
4643;DHT22;2334;48.710;9.622;2024-02-15T11:18:41;16.70;99.90
4643;DHT22;2334;48.710;9.622;2024-02-15T11:21:11;16.80;99.90
4643;DHT22;2334;48.710;9.622;2024-02-15T11:23:38;17.00;99.90
4643;DHT22;2334;48.710;9.622;2024-02-15T11:26:16;16.90;99.90
4643;DHT22;2334;48.710;9.622;2024-02-15T11:28:55;16.90;99.90
4643;DHT22;2334;48.710;9.622;2024-02-15T11:31:54;16.80;99.90
4643;DHT22;2334;48.710;9.622;2024-02-15T11:34:43;16.90;99.90
4643;DHT22;2334;48.710;9.622;2024-02-15T11:40:13;17.10;99.90
4643;DHT22;2334;48.710;9.622;2024-02-15T11:42:41;17.20;99.90
4643;DHT22;2334;48.710;9.622;2024-02-15T11:45:19;17.40;99.90
4643;DHT22;2334;48.710;9.622;2024-02-15T11:47:56;17.20;99.90
4643;DHT22;2334;48.710;9.622;2024-02-15T11:50:34;17.30;99.90
4643;DHT22;2334;48.710;9.622;2024-02-15T11:53:05;17.40;99.90
4643;DHT22;2334;48.710;9.622;2024-02-15T11:55:49;17.30;99.90
4643;DHT22;2334;48.710;9.622;2024-02-15T11:58:28;17.10;99.90
4643;DHT22;2334;48.710;9.622;2024-02-15T12:01:08;17.30;99.90
4643;DHT22;2334;48.710;9.622;2024-02-15T12:03:53;17.50;99.90
4643;DHT22;2334;48.710;9.622;2024-02-15T12:06:37;17.70;99.90
4643;DHT22;2334;48.710;9.622;2024-02-15T12:09:23;17.60;99.90
4643;DHT22;2334;48.710;9.622;2024-02-15T12:12:09;17.50;99.90
4643;DHT22;2334;48.710;9.622;2024-02-15T12:14:58;17.40;99.90
4643;DHT22;2334;48.710;9.622;2024-02-15T12:17:51;17.40;99.90
4643;DHT22;2334;48.710;9.622;2024-02-15T12:20:36;17.40;99.90
4643;DHT22;2334;48.710;9.622;2024-02-15T12:23:03;17.50;99.90
4643;DHT22;2334;48.710;9.622;2024-02-15T12:25:32;17.40;99.90
4643;DHT22;2334;48.710;9.622;2024-02-15T12:28:03;17.10;99.90
4643;DHT22;2334;48.710;9.622;2024-02-15T12:30:33;17.20;99.90
4643;DHT22;2334;48.710;9.622;2024-02-15T12:33:09;17.20;99.90
4643;DHT22;2334;48.710;9.622;2024-02-15T12:35:37;17.10;99.90
4643;DHT22;2334;48.710;9.622;2024-02-15T12:38:04;17.10;99.90
4643;DHT22;2334;48.710;9.622;2024-02-15T12:40:32;17.30;99.90
4643;DHT22;2334;48.710;9.622;2024-02-15T12:43:00;17.20;99.90
4643;DHT22;2334;48.710;9.622;2024-02-15T12:45:28;17.10;99.90
4643;DHT22;2334;48.710;9.622;2024-02-15T12:47:56;17.10;99.90
4643;DHT22;2334;48.710;9.622;2024-02-15T12:50:27;17.10;99.90
4643;DHT22;2334;48.710;9.622;2024-02-15T12:52:54;17.10;99.90
4643;DHT22;2334;48.710;9.622;2024-02-15T12:55:29;17.10;99.90
4643;DHT22;2334;48.710;9.622;2024-02-15T12:58:00;16.90;99.90
4643;DHT22;2334;48.710;9.622;2024-02-15T13:00:31;16.90;99.90
4643;DHT22;2334;48.710;9.622;2024-02-15T13:03:00;16.90;99.90
4643;DHT22;2334;48.710;9.622;2024-02-15T13:05:30;16.80;99.90
4643;DHT22;2334;48.710;9.622;2024-02-15T13:07:58;16.90;99.90
4643;DHT22;2334;48.710;9.622;2024-02-15T13:10:25;16.90;99.90
4643;DHT22;2334;48.710;9.622;2024-02-15T13:12:53;16.70;99.90
4643;DHT22;2334;48.710;9.622;2024-02-15T13:15:22;16.70;99.90
4643;DHT22;2334;48.710;9.622;2024-02-15T13:17:54;16.70;99.90
4643;DHT22;2334;48.710;9.622;2024-02-15T13:20:22;16.70;99.90
4643;DHT22;2334;48.710;9.622;2024-02-15T13:22:58;16.60;99.90
4643;DHT22;2334;48.710;9.622;2024-02-15T13:25:27;16.60;99.90
4643;DHT22;2334;48.710;9.622;2024-02-15T13:27:55;16.70;99.90
4643;DHT22;2334;48.710;9.622;2024-02-15T13:30:22;16.70;99.90
4643;DHT22;2334;48.710;9.622;2024-02-15T13:32:54;16.70;99.90
4643;DHT22;2334;48.710;9.622;2024-02-15T13:35:21;16.80;99.90
4643;DHT22;2334;48.710;9.622;2024-02-15T13:37:49;16.80;99.90
4643;DHT22;2334;48.710;9.622;2024-02-15T13:40:19;16.80;99.90
4643;DHT22;2334;48.710;9.622;2024-02-15T13:42:50;16.90;99.90
4643;DHT22;2334;48.710;9.622;2024-02-15T13:45:20;16.80;99.90
4643;DHT22;2334;48.710;9.622;2024-02-15T13:47:48;16.80;99.90
4643;DHT22;2334;48.710;9.622;2024-02-15T13:50:17;16.80;99.90
4643;DHT22;2334;48.710;9.622;2024-02-15T13:52:45;16.70;99.90
4643;DHT22;2334;48.710;9.622;2024-02-15T13:55:12;16.70;99.90
4643;DHT22;2334;48.710;9.622;2024-02-15T13:57:40;16.60;99.90
4643;DHT22;2334;48.710;9.622;2024-02-15T14:00:09;16.60;99.90
4643;DHT22;2334;48.710;9.622;2024-02-15T14:02:47;16.50;99.90
4643;DHT22;2334;48.710;9.622;2024-02-15T14:05:14;16.50;99.90
4643;DHT22;2334;48.710;9.622;2024-02-15T14:07:50;16.50;99.90
4643;DHT22;2334;48.710;9.622;2024-02-15T14:10:20;16.50;99.90
4643;DHT22;2334;48.710;9.622;2024-02-15T14:12:48;16.40;99.90
4643;DHT22;2334;48.710;9.622;2024-02-15T14:15:15;16.40;99.90
4643;DHT22;2334;48.710;9.622;2024-02-15T14:17:43;16.40;99.90
4643;DHT22;2334;48.710;9.622;2024-02-15T14:20:11;16.30;99.90
4643;DHT22;2334;48.710;9.622;2024-02-15T14:22:40;16.30;99.90
4643;DHT22;2334;48.710;9.622;2024-02-15T14:25:09;16.40;99.90
4643;DHT22;2334;48.710;9.622;2024-02-15T14:27:38;16.30;99.90
4643;DHT22;2334;48.710;9.622;2024-02-15T14:30:07;16.40;99.90
4643;DHT22;2334;48.710;9.622;2024-02-15T14:32:51;16.40;99.90
4643;DHT22;2334;48.710;9.622;2024-02-15T14:35:30;16.40;99.90
4643;DHT22;2334;48.710;9.622;2024-02-15T14:38:01;16.30;99.90
4643;DHT22;2334;48.710;9.622;2024-02-15T14:40:33;16.30;99.90
4643;DHT22;2334;48.710;9.622;2024-02-15T14:43:01;16.30;99.90
4643;DHT22;2334;48.710;9.622;2024-02-15T14:45:28;16.30;99.90
4643;DHT22;2334;48.710;9.622;2024-02-15T14:47:58;16.30;99.90
4643;DHT22;2334;48.710;9.622;2024-02-15T14:50:25;16.30;99.90
4643;DHT22;2334;48.710;9.622;2024-02-15T14:52:52;16.20;99.90
4643;DHT22;2334;48.710;9.622;2024-02-15T14:55:20;16.20;99.90
4643;DHT22;2334;48.710;9.622;2024-02-15T14:57:49;16.20;99.90
4643;DHT22;2334;48.710;9.622;2024-02-15T15:00:16;16.20;99.90
4643;DHT22;2334;48.710;9.622;2024-02-15T15:02:46;16.10;99.90
4643;DHT22;2334;48.710;9.622;2024-02-15T15:05:14;16.10;99.90
4643;DHT22;2334;48.710;9.622;2024-02-15T15:07:59;16.10;99.90
4643;DHT22;2334;48.710;9.622;2024-02-15T15:10:45;16.10;99.90
4643;DHT22;2334;48.710;9.622;2024-02-15T15:13:32;16.10;99.90
4643;DHT22;2334;48.710;9.622;2024-02-15T15:15:59;16.10;99.90
4643;DHT22;2334;48.710;9.622;2024-02-15T15:18:28;16.00;99.90
4643;DHT22;2334;48.710;9.622;2024-02-15T15:20:57;16.00;99.90
4643;DHT22;2334;48.710;9.622;2024-02-15T15:23:24;15.90;99.90
4643;DHT22;2334;48.710;9.622;2024-02-15T15:25:51;16.00;99.90
4643;DHT22;2334;48.710;9.622;2024-02-15T15:28:18;16.00;99.90
4643;DHT22;2334;48.710;9.622;2024-02-15T15:30:48;15.90;99.90
4643;DHT22;2334;48.710;9.622;2024-02-15T15:33:16;15.90;99.90
4643;DHT22;2334;48.710;9.622;2024-02-15T15:35:44;15.80;99.90
4643;DHT22;2334;48.710;9.622;2024-02-15T15:38:11;15.80;99.90
4643;DHT22;2334;48.710;9.622;2024-02-15T15:40:38;15.80;99.90
4643;DHT22;2334;48.710;9.622;2024-02-15T15:43:06;15.70;99.90
4643;DHT22;2334;48.710;9.622;2024-02-15T15:45:33;15.60;99.90
4643;DHT22;2334;48.710;9.622;2024-02-15T15:48:02;15.60;99.90
4643;DHT22;2334;48.710;9.622;2024-02-15T15:50:30;15.50;99.90
4643;DHT22;2334;48.710;9.622;2024-02-15T15:53:01;15.50;99.90
4643;DHT22;2334;48.710;9.622;2024-02-15T15:55:30;15.40;99.90
4643;DHT22;2334;48.710;9.622;2024-02-15T15:58:03;15.40;99.90
4643;DHT22;2334;48.710;9.622;2024-02-15T16:00:37;15.20;99.90
4643;DHT22;2334;48.710;9.622;2024-02-15T16:03:14;15.20;99.90
4643;DHT22;2334;48.710;9.622;2024-02-15T16:05:43;15.10;99.90
4643;DHT22;2334;48.710;9.622;2024-02-15T16:08:27;15.10;99.90
4643;DHT22;2334;48.710;9.622;2024-02-15T16:11:00;15.00;99.90
4643;DHT22;2334;48.710;9.622;2024-02-15T16:13:36;15.00;99.90
4643;DHT22;2334;48.710;9.622;2024-02-15T16:16:11;14.90;99.90
4643;DHT22;2334;48.710;9.622;2024-02-15T16:18:49;14.90;99.90
4643;DHT22;2334;48.710;9.622;2024-02-15T16:21:26;14.80;99.90
4643;DHT22;2334;48.710;9.622;2024-02-15T16:23:56;14.70;99.90
4643;DHT22;2334;48.710;9.622;2024-02-15T16:26:36;14.60;99.90
4643;DHT22;2334;48.710;9.622;2024-02-15T16:29:04;14.50;99.90
4643;DHT22;2334;48.710;9.622;2024-02-15T16:31:32;14.40;99.90
4643;DHT22;2334;48.710;9.622;2024-02-15T16:34:03;14.40;99.90
4643;DHT22;2334;48.710;9.622;2024-02-15T16:36:42;14.20;99.90
4643;DHT22;2334;48.710;9.622;2024-02-15T16:39:13;14.20;99.90
4643;DHT22;2334;48.710;9.622;2024-02-15T16:41:49;14.10;99.90
4643;DHT22;2334;48.710;9.622;2024-02-15T16:44:21;14.10;99.90
4643;DHT22;2334;48.710;9.622;2024-02-15T16:47:04;14.10;99.90
4643;DHT22;2334;48.710;9.622;2024-02-15T16:49:55;14.00;99.90
4643;DHT22;2334;48.710;9.622;2024-02-15T16:52:37;14.00;99.90
4643;DHT22;2334;48.710;9.622;2024-02-15T16:55:23;13.90;99.90
4643;DHT22;2334;48.710;9.622;2024-02-15T16:58:10;13.80;99.90
4643;DHT22;2334;48.710;9.622;2024-02-15T17:00:59;13.70;99.90
4643;DHT22;2334;48.710;9.622;2024-02-15T17:03:53;13.60;99.90
4643;DHT22;2334;48.710;9.622;2024-02-15T17:06:34;13.50;99.90
4643;DHT22;2334;48.710;9.622;2024-02-15T17:09:44;13.50;99.90
4643;DHT22;2334;48.710;9.622;2024-02-15T17:12:19;13.50;99.90
4643;DHT22;2334;48.710;9.622;2024-02-15T17:15:00;13.40;99.90
4643;DHT22;2334;48.710;9.622;2024-02-15T17:17:42;13.40;99.90
4643;DHT22;2334;48.710;9.622;2024-02-15T17:20:27;13.30;99.90
4643;DHT22;2334;48.710;9.622;2024-02-15T17:23:14;13.10;99.90